createdAt,value
2023-01-13T00:01:16.956Z,87.30
2023-01-13T00:03:44.720Z,87.60
2023-01-13T00:06:14.855Z,87.80
2023-01-13T00:08:42.162Z,87.90
2023-01-13T00:11:10.808Z,88.00
2023-01-13T00:13:38.856Z,88.00
2023-01-13T00:16:08.722Z,88.00
2023-01-13T00:18:38.930Z,88.10
2023-01-13T00:21:18.341Z,88.10
2023-01-13T00:23:46.541Z,88.20
2023-01-13T00:26:19.796Z,88.10
2023-01-13T00:28:47.130Z,88.10
2023-01-13T00:31:17.577Z,87.90
2023-01-13T00:33:45.245Z,88.60
2023-01-13T00:36:14.591Z,88.00
2023-01-13T00:38:43.178Z,87.90
2023-01-13T00:41:13.278Z,87.60
2023-01-13T00:43:41.206Z,87.40
2023-01-13T00:46:10.922Z,87.20
2023-01-13T00:48:38.916Z,87.10
2023-01-13T00:51:17.402Z,87.00
2023-01-13T00:53:50.513Z,86.80
2023-01-13T00:56:34.192Z,86.80
2023-01-13T00:59:12.525Z,86.70
2023-01-13T01:01:41.165Z,86.50
2023-01-13T01:04:08.958Z,86.50
2023-01-13T01:06:36.680Z,87.30
2023-01-13T01:09:04.851Z,86.60
2023-01-13T01:11:33.792Z,86.70
2023-01-13T01:14:03.172Z,86.60
2023-01-13T01:16:32.192Z,86.50
2023-01-13T01:19:00.644Z,86.50
2023-01-13T01:21:29.358Z,86.40
2023-01-13T01:24:00.365Z,86.40
2023-01-13T01:26:29.316Z,86.50
2023-01-13T01:28:56.776Z,86.60
2023-01-13T01:31:27.255Z,86.80
2023-01-13T01:33:55.415Z,86.90
2023-01-13T01:36:26.736Z,86.80
2023-01-13T01:38:57.316Z,86.80
2023-01-13T01:41:27.891Z,87.50
2023-01-13T01:43:59.946Z,86.70
2023-01-13T01:46:41.770Z,86.70
2023-01-13T01:49:21.120Z,86.60
2023-01-13T01:52:08.665Z,86.60
2023-01-13T01:54:46.867Z,87.40
2023-01-13T01:57:21.083Z,86.90
2023-01-13T01:59:49.698Z,86.80
2023-01-13T02:02:17.688Z,86.80
2023-01-13T02:04:51.243Z,86.30
2023-01-13T02:07:22.625Z,86.00
2023-01-13T02:09:50.126Z,85.80
2023-01-13T02:12:29.474Z,85.70
2023-01-13T02:15:03.302Z,85.60
2023-01-13T02:17:56.399Z,85.40
2023-01-13T02:20:26.799Z,85.30
2023-01-13T02:22:57.017Z,85.40
2023-01-13T02:25:30.411Z,85.50
2023-01-13T02:28:25.588Z,85.40
2023-01-13T02:31:27.918Z,85.40
2023-01-13T02:34:02.712Z,85.60
2023-01-13T02:36:55.168Z,85.70
2023-01-13T02:39:34.479Z,85.70
2023-01-13T02:43:02.053Z,86.40
2023-01-13T02:45:46.913Z,85.80
2023-01-13T02:48:16.562Z,85.90
2023-01-13T02:50:52.073Z,85.90
2023-01-13T02:54:01.532Z,85.90
2023-01-13T02:56:30.834Z,86.00
2023-01-13T02:58:59.839Z,86.30
2023-01-13T03:01:27.576Z,86.50
2023-01-13T03:03:54.964Z,86.70
2023-01-13T03:06:41.133Z,86.80
2023-01-13T03:09:30.212Z,86.90
2023-01-13T03:12:21.006Z,87.20
2023-01-13T03:14:57.581Z,87.40
2023-01-13T03:17:54.370Z,87.60
2023-01-13T03:20:29.201Z,87.70
2023-01-13T03:22:59.571Z,87.80
2023-01-13T03:25:36.263Z,87.90
2023-01-13T03:28:23.961Z,87.80
2023-01-13T03:30:58.808Z,87.60
2023-01-13T03:33:33.340Z,87.60
2023-01-13T03:36:05.767Z,87.50
2023-01-13T03:38:36.976Z,87.50
2023-01-13T03:41:09.744Z,88.30
2023-01-13T03:44:03.229Z,87.50
2023-01-13T03:46:39.387Z,87.80
2023-01-13T03:49:08.950Z,87.90
2023-01-13T03:51:41.195Z,87.90
2023-01-13T03:54:13.441Z,88.10
2023-01-13T03:56:51.226Z,88.40
2023-01-13T03:59:23.841Z,88.60
2023-01-13T04:01:56.971Z,88.60
2023-01-13T04:04:40.233Z,88.70
2023-01-13T04:07:29.657Z,88.90
2023-01-13T04:10:00.360Z,88.90
2023-01-13T04:12:54.274Z,88.90
2023-01-13T04:15:24.018Z,88.60
2023-01-13T04:17:52.010Z,88.70
2023-01-13T04:20:19.843Z,88.60
2023-01-13T04:22:47.281Z,88.90
2023-01-13T04:25:14.555Z,88.80
2023-01-13T04:27:41.960Z,88.80
2023-01-13T04:30:10.118Z,88.90
2023-01-13T04:32:37.475Z,89.30
2023-01-13T04:35:05.349Z,89.50
2023-01-13T04:37:33.470Z,89.90
2023-01-13T04:40:01.106Z,89.90
2023-01-13T04:42:28.496Z,90.00
2023-01-13T04:44:56.755Z,90.10
2023-01-13T04:47:24.019Z,90.20
2023-01-13T04:49:51.638Z,90.30
2023-01-13T04:52:18.984Z,90.20
2023-01-13T04:54:46.421Z,90.20
2023-01-13T04:57:13.683Z,90.20
2023-01-13T04:59:42.119Z,90.20
2023-01-13T05:02:09.755Z,90.20
2023-01-13T05:04:37.218Z,90.30
2023-01-13T05:07:04.828Z,90.40
2023-01-13T05:09:32.126Z,90.50
2023-01-13T05:12:18.027Z,90.50
2023-01-13T05:15:03.608Z,90.60
2023-01-13T05:17:32.267Z,90.60
2023-01-13T05:20:00.047Z,90.60
2023-01-13T05:22:45.999Z,90.60
2023-01-13T05:25:22.869Z,90.60
2023-01-13T05:27:58.275Z,90.70
2023-01-13T05:30:28.545Z,90.70
2023-01-13T05:32:56.190Z,90.90
2023-01-13T05:35:24.242Z,90.60
2023-01-13T05:37:51.670Z,90.60
2023-01-13T05:40:38.220Z,90.50
2023-01-13T05:43:22.369Z,90.50
2023-01-13T05:45:57.388Z,90.60
2023-01-13T05:48:38.498Z,90.60
2023-01-13T05:51:08.125Z,90.60
2023-01-13T05:53:35.711Z,90.60
2023-01-13T05:56:07.748Z,90.60
2023-01-13T05:58:38.254Z,90.60
2023-01-13T06:01:09.265Z,90.60
2023-01-13T06:03:37.090Z,90.80
2023-01-13T06:06:04.776Z,90.80
2023-01-13T06:08:32.789Z,90.90
2023-01-13T06:11:00.597Z,90.90
2023-01-13T06:13:28.160Z,90.90
2023-01-13T06:15:59.376Z,91.20
2023-01-13T06:18:27.495Z,90.90
2023-01-13T06:20:55.116Z,90.90
2023-01-13T06:23:22.590Z,90.90
2023-01-13T06:26:12.235Z,91.00
2023-01-13T06:28:39.561Z,91.10
2023-01-13T06:31:10.437Z,91.10
2023-01-13T06:33:43.330Z,91.00
2023-01-13T06:36:16.722Z,91.10
2023-01-13T06:38:47.751Z,91.00
2023-01-13T06:41:15.904Z,91.10
2023-01-13T06:43:43.216Z,91.00
2023-01-13T06:46:10.509Z,91.00
2023-01-13T06:48:38.905Z,91.10
2023-01-13T06:51:06.608Z,91.10
2023-01-13T06:53:33.852Z,91.00
2023-01-13T06:56:01.382Z,91.10
2023-01-13T06:58:28.660Z,91.20
2023-01-13T07:01:00.588Z,91.30
2023-01-13T07:03:28.056Z,91.20
2023-01-13T07:05:56.494Z,91.20
2023-01-13T07:08:24.800Z,91.10
2023-01-13T07:10:53.138Z,91.10
2023-01-13T07:13:39.488Z,91.10
2023-01-13T07:16:08.568Z,91.20
2023-01-13T07:18:36.777Z,91.20
2023-01-13T07:21:07.049Z,91.40
2023-01-13T07:23:37.081Z,91.70
2023-01-13T07:26:05.320Z,91.40
2023-01-13T07:28:33.610Z,91.50
2023-01-13T07:31:01.367Z,91.40
2023-01-13T07:33:33.100Z,91.30
2023-01-13T07:36:03.484Z,91.30
2023-01-13T07:38:32.203Z,91.20
2023-01-13T07:41:20.009Z,91.20
2023-01-13T07:43:47.729Z,90.90
2023-01-13T07:46:15.468Z,91.00
2023-01-13T07:48:43.074Z,91.10
2023-01-13T07:51:12.182Z,91.10
2023-01-13T07:53:39.903Z,91.10
2023-01-13T07:56:07.907Z,91.20
2023-01-13T07:58:36.680Z,91.10
2023-01-13T08:01:12.217Z,91.10
2023-01-13T08:03:40.769Z,91.10
2023-01-13T08:06:09.524Z,91.10
2023-01-13T08:08:37.580Z,91.00
2023-01-13T08:11:06.562Z,90.90
2023-01-13T08:13:34.599Z,90.90
2023-01-13T08:16:05.661Z,90.90
2023-01-13T08:18:34.355Z,91.00
2023-01-13T08:21:13.311Z,90.90
2023-01-13T08:23:42.270Z,90.90
2023-01-13T08:26:16.061Z,91.30
2023-01-13T08:28:44.133Z,91.10
2023-01-13T08:31:14.041Z,91.10
2023-01-13T08:33:41.817Z,91.10
2023-01-13T08:36:11.220Z,91.00
2023-01-13T08:38:38.999Z,90.90
2023-01-13T08:41:14.762Z,91.10
2023-01-13T08:43:42.298Z,91.10
2023-01-13T08:46:10.002Z,91.10
2023-01-13T08:48:37.324Z,91.10
2023-01-13T08:51:07.248Z,91.00
2023-01-13T08:53:34.832Z,90.90
2023-01-13T08:56:06.541Z,90.80
2023-01-13T08:58:33.806Z,90.40
2023-01-13T09:01:05.406Z,90.30
2023-01-13T09:03:33.004Z,90.40
2023-01-13T09:06:00.287Z,90.30
2023-01-13T09:08:27.662Z,90.50
2023-01-13T09:10:55.316Z,90.40
2023-01-13T09:13:22.715Z,90.20
2023-01-13T09:15:50.320Z,90.10
2023-01-13T09:18:17.906Z,90.50
2023-01-13T09:20:45.136Z,90.30
2023-01-13T09:23:12.656Z,90.20
2023-01-13T09:25:39.992Z,88.60
2023-01-13T09:28:08.784Z,89.50
2023-01-13T09:30:37.729Z,88.30
2023-01-13T09:33:23.570Z,88.30
2023-01-13T09:35:51.221Z,88.30
2023-01-13T09:38:18.796Z,88.50
2023-01-13T09:40:49.728Z,88.10
2023-01-13T09:43:42.030Z,88.20
2023-01-13T09:46:49.826Z,88.40
2023-01-13T09:49:24.151Z,88.00
2023-01-13T09:52:15.339Z,87.80
2023-01-13T09:54:53.915Z,87.50
2023-01-13T09:57:21.952Z,87.10
2023-01-13T09:59:49.514Z,87.10
2023-01-13T10:02:39.692Z,87.10
2023-01-13T10:05:29.144Z,87.60
2023-01-13T10:08:01.985Z,87.50
2023-01-13T10:10:56.612Z,86.70
2023-01-13T10:13:28.600Z,86.70
2023-01-13T10:16:12.074Z,86.20
2023-01-13T10:19:04.953Z,86.60
2023-01-13T10:21:41.260Z,86.90
2023-01-13T10:24:50.638Z,86.70
2023-01-13T10:27:27.593Z,86.50
2023-01-13T10:29:55.146Z,86.30
2023-01-13T10:32:22.599Z,86.30
2023-01-13T10:34:52.338Z,86.20
2023-01-13T10:37:22.791Z,86.20
2023-01-13T10:39:55.160Z,85.90
2023-01-13T10:42:24.168Z,85.70
2023-01-13T10:44:57.357Z,85.30
2023-01-13T10:47:34.686Z,85.00
2023-01-13T10:50:27.110Z,85.00
2023-01-13T10:53:19.131Z,84.50
2023-01-13T10:56:02.687Z,84.50
2023-01-13T10:58:30.072Z,83.90
2023-01-13T11:01:04.504Z,83.80
2023-01-13T11:03:45.236Z,83.50
2023-01-13T11:06:31.251Z,82.70
2023-01-13T11:08:58.820Z,82.00
2023-01-13T11:11:43.933Z,82.60
2023-01-13T11:14:42.561Z,82.00
2023-01-13T11:17:35.581Z,81.40
2023-01-13T11:20:12.215Z,80.80
2023-01-13T11:22:45.339Z,80.40
2023-01-13T11:25:31.993Z,79.90
2023-01-13T11:28:05.719Z,79.80
2023-01-13T11:30:43.076Z,80.00
2023-01-13T11:33:10.821Z,79.70
2023-01-13T11:36:04.309Z,79.10
2023-01-13T11:38:54.393Z,79.20
2023-01-13T11:42:12.365Z,79.00
2023-01-13T11:44:46.400Z,79.10
2023-01-13T11:47:14.393Z,79.00
2023-01-13T11:49:42.719Z,79.00
2023-01-13T11:52:47.772Z,78.80
2023-01-13T11:55:35.444Z,78.30
2023-01-13T11:58:11.609Z,78.00
2023-01-13T12:01:05.461Z,78.10
2023-01-13T12:03:43.244Z,77.90
2023-01-13T12:06:35.151Z,77.80
2023-01-13T12:09:30.295Z,77.90
2023-01-13T12:12:23.132Z,78.30
2023-01-13T12:15:25.939Z,78.20
2023-01-13T12:18:32.459Z,78.00
2023-01-13T12:21:12.792Z,78.20
2023-01-13T12:24:17.898Z,78.40
2023-01-13T12:26:54.401Z,78.90
2023-01-13T12:29:34.519Z,79.00
2023-01-13T12:32:14.451Z,79.80
2023-01-13T12:34:44.714Z,79.20
2023-01-13T12:37:31.704Z,79.40
2023-01-13T12:40:20.660Z,79.30
2023-01-13T12:43:40.052Z,79.60
2023-01-13T12:46:19.570Z,79.80
2023-01-13T12:48:59.402Z,79.50
2023-01-13T12:51:26.741Z,79.60
2023-01-13T12:53:55.569Z,79.60
2023-01-13T12:56:29.189Z,79.80
2023-01-13T12:59:28.641Z,79.80
2023-01-13T13:02:11.316Z,79.90
2023-01-13T13:04:51.854Z,79.40
2023-01-13T13:07:31.198Z,79.00
2023-01-13T13:10:15.384Z,78.30
2023-01-13T13:13:01.083Z,78.20
2023-01-13T13:15:30.946Z,78.20
2023-01-13T13:18:17.017Z,78.60
2023-01-13T13:21:10.227Z,78.90
2023-01-13T13:23:48.307Z,79.40
2023-01-13T13:26:21.854Z,79.80
2023-01-13T13:29:27.060Z,80.20
2023-01-13T13:32:06.658Z,80.70
2023-01-13T13:35:04.051Z,80.80
2023-01-13T13:38:13.922Z,80.90
2023-01-13T13:41:04.377Z,80.90
2023-01-13T13:43:59.223Z,81.10
2023-01-13T13:46:48.705Z,81.20
2023-01-13T13:49:22.224Z,81.40
2023-01-13T13:52:04.011Z,81.40
2023-01-13T13:54:32.510Z,81.80
2023-01-13T13:57:01.101Z,82.00
2023-01-13T13:59:33.684Z,83.00
2023-01-13T14:02:03.699Z,82.30
2023-01-13T14:04:33.886Z,82.40
2023-01-13T14:07:18.401Z,82.50
2023-01-13T14:09:48.112Z,82.90
2023-01-13T14:12:22.059Z,83.10
2023-01-13T14:14:50.193Z,83.20
2023-01-13T14:17:24.537Z,83.40
2023-01-13T14:20:14.737Z,83.80
2023-01-13T14:22:53.538Z,84.20
2023-01-13T14:25:48.053Z,84.40
2023-01-13T14:28:40.267Z,84.80
2023-01-13T14:31:09.097Z,84.90
2023-01-13T14:33:43.743Z,85.10
2023-01-13T14:36:31.813Z,85.10
2023-01-13T14:39:05.471Z,85.20
2023-01-13T14:41:38.323Z,85.40
2023-01-13T14:44:30.421Z,85.60
2023-01-13T14:47:19.832Z,85.90
2023-01-13T14:50:02.719Z,86.10
2023-01-13T14:52:54.794Z,86.40
2023-01-13T14:55:27.860Z,86.60
2023-01-13T14:58:28.537Z,86.80
2023-01-13T15:01:28.238Z,87.10
2023-01-13T15:04:14.993Z,87.30
2023-01-13T15:06:51.339Z,87.50
2023-01-13T15:09:25.839Z,87.90
2023-01-13T15:11:54.318Z,88.00
2023-01-13T15:14:31.258Z,88.10
2023-01-13T15:16:58.711Z,88.10
2023-01-13T15:19:26.092Z,88.30
2023-01-13T15:21:53.465Z,88.50
2023-01-13T15:24:21.005Z,88.60
2023-01-13T15:26:48.319Z,88.70
2023-01-13T15:29:24.253Z,88.50
2023-01-13T15:31:53.265Z,88.70
2023-01-13T15:34:21.473Z,89.60
2023-01-13T15:36:49.046Z,89.00
2023-01-13T15:39:16.441Z,89.20
2023-01-13T15:42:02.342Z,89.50
2023-01-13T15:44:48.236Z,89.70
2023-01-13T15:47:15.577Z,89.80
2023-01-13T15:49:44.270Z,89.70
2023-01-13T15:52:25.918Z,89.50
2023-01-13T15:54:54.053Z,89.70
2023-01-13T15:57:24.708Z,89.80
2023-01-13T15:59:55.161Z,89.80
2023-01-13T16:02:23.699Z,89.70
2023-01-13T16:04:53.983Z,89.50
2023-01-13T16:07:23.814Z,89.60
2023-01-13T16:09:51.705Z,89.70
2023-01-13T16:12:19.337Z,89.70
2023-01-13T16:14:46.826Z,89.70
2023-01-13T16:17:23.428Z,89.30
2023-01-13T16:19:51.800Z,89.40
2023-01-13T16:22:19.344Z,89.50
2023-01-13T16:24:46.880Z,89.70
2023-01-13T16:27:21.555Z,89.40
2023-01-13T16:29:49.967Z,89.50
2023-01-13T16:32:19.748Z,89.70
2023-01-13T16:34:47.398Z,90.00
2023-01-13T16:37:26.535Z,89.80
2023-01-13T16:39:54.281Z,90.10
2023-01-13T16:42:21.821Z,90.20
2023-01-13T16:44:50.813Z,90.20
2023-01-13T16:47:18.929Z,90.80
2023-01-13T16:49:46.572Z,90.90
2023-01-13T16:52:14.130Z,90.90
2023-01-13T16:54:41.677Z,91.10
2023-01-13T16:57:13.351Z,91.20
2023-01-13T16:59:40.748Z,90.90
2023-01-13T17:02:16.303Z,90.80
2023-01-13T17:04:43.695Z,91.10
2023-01-13T17:07:16.714Z,91.60
2023-01-13T17:09:44.174Z,91.70
2023-01-13T17:12:11.828Z,91.40
2023-01-13T17:14:40.004Z,91.80
2023-01-13T17:17:24.889Z,91.70
2023-01-13T17:19:53.505Z,91.80
2023-01-13T17:22:21.883Z,91.90
2023-01-13T17:24:49.203Z,91.80
2023-01-13T17:27:18.609Z,91.80
2023-01-13T17:29:46.292Z,91.80
2023-01-13T17:32:17.275Z,92.00
2023-01-13T17:34:45.125Z,92.10
2023-01-13T17:37:15.638Z,92.00
2023-01-13T17:39:46.274Z,92.10
2023-01-13T17:42:14.825Z,92.10
2023-01-13T17:44:42.568Z,92.10
2023-01-13T17:47:10.010Z,92.10
2023-01-13T17:49:37.327Z,92.00
2023-01-13T17:52:05.090Z,92.00
2023-01-13T17:54:32.689Z,91.90
2023-01-13T17:57:00.141Z,92.00
2023-01-13T17:59:27.485Z,92.00
2023-01-13T18:01:54.813Z,92.00
2023-01-13T18:04:24.661Z,92.10
2023-01-13T18:06:51.924Z,92.20
2023-01-13T18:09:19.961Z,92.20
2023-01-13T18:11:47.480Z,92.40
2023-01-13T18:14:15.737Z,92.50
2023-01-13T18:16:43.554Z,92.50
2023-01-13T18:19:29.861Z,92.40
2023-01-13T18:22:17.089Z,92.40
2023-01-13T18:25:02.902Z,92.40
2023-01-13T18:27:38.037Z,92.50
2023-01-13T18:30:06.618Z,92.40
2023-01-13T18:32:34.438Z,92.50
2023-01-13T18:35:06.675Z,92.50
2023-01-13T18:37:36.046Z,92.60
2023-01-13T18:40:05.550Z,92.70
2023-01-13T18:42:51.909Z,92.70
2023-01-13T18:45:24.678Z,92.80
2023-01-13T18:47:54.000Z,92.80
2023-01-13T18:50:22.353Z,92.80
2023-01-13T18:52:49.949Z,92.70
2023-01-13T18:55:17.889Z,92.60
2023-01-13T18:57:45.461Z,92.60
2023-01-13T19:00:17.191Z,92.70
2023-01-13T19:02:45.265Z,92.80
2023-01-13T19:05:13.291Z,92.70
2023-01-13T19:07:40.731Z,92.70
2023-01-13T19:10:09.845Z,92.80
2023-01-13T19:12:37.355Z,92.70
2023-01-13T19:15:05.311Z,92.60
2023-01-13T19:17:34.817Z,92.50
2023-01-13T19:20:03.036Z,92.50
2023-01-13T19:22:33.408Z,92.40
2023-01-13T19:25:01.898Z,92.40
2023-01-13T19:27:30.159Z,92.50
2023-01-13T19:30:00.221Z,92.50
2023-01-13T19:32:28.484Z,92.40
2023-01-13T19:34:59.179Z,92.40
2023-01-13T19:37:30.629Z,92.80
2023-01-13T19:39:59.295Z,92.50
2023-01-13T19:42:45.896Z,92.50
2023-01-13T19:45:27.799Z,92.50
2023-01-13T19:47:57.725Z,92.60
2023-01-13T19:50:25.669Z,92.60
2023-01-13T19:52:53.788Z,92.60
2023-01-13T19:55:22.264Z,92.50
2023-01-13T19:57:49.940Z,92.30
2023-01-13T20:00:20.643Z,91.40
2023-01-13T20:02:51.895Z,91.30
2023-01-13T20:05:22.701Z,90.50
2023-01-13T20:07:51.090Z,88.60
2023-01-13T20:10:20.651Z,87.60
2023-01-13T20:12:48.414Z,86.90
2023-01-13T20:15:15.828Z,86.60
2023-01-13T20:17:43.350Z,85.80
2023-01-13T20:20:11.435Z,85.50
2023-01-13T20:22:39.422Z,84.80
2023-01-13T20:25:07.649Z,85.00
2023-01-13T20:27:35.153Z,84.80
2023-01-13T20:30:02.675Z,84.60
2023-01-13T20:32:29.944Z,84.70
2023-01-13T20:34:57.318Z,84.70
2023-01-13T20:37:24.578Z,84.60
2023-01-13T20:39:52.135Z,84.70
2023-01-13T20:42:38.024Z,84.40
2023-01-13T20:45:06.036Z,84.60
2023-01-13T20:47:33.378Z,84.40
2023-01-13T20:50:00.632Z,84.20
2023-01-13T20:52:28.681Z,84.30
2023-01-13T20:54:55.964Z,84.00
2023-01-13T20:57:23.257Z,83.90
2023-01-13T20:59:50.927Z,84.00
2023-01-13T21:02:19.318Z,83.90
2023-01-13T21:04:46.713Z,83.70
2023-01-13T21:07:14.104Z,83.70
2023-01-13T21:09:41.479Z,83.30
2023-01-13T21:12:28.829Z,83.40
2023-01-13T21:15:14.712Z,83.30
2023-01-13T21:18:00.548Z,83.30
2023-01-13T21:20:30.715Z,83.30
2023-01-13T21:22:57.986Z,83.30
2023-01-13T21:25:25.393Z,83.40
2023-01-13T21:28:01.848Z,83.30
2023-01-13T21:30:29.197Z,83.40
2023-01-13T21:32:56.485Z,83.60
2023-01-13T21:35:23.916Z,83.60
2023-01-13T21:37:51.222Z,83.80
2023-01-13T21:40:18.871Z,83.70
2023-01-13T21:43:04.459Z,83.50
2023-01-13T21:45:50.649Z,83.40
2023-01-13T21:48:18.068Z,83.30
2023-01-13T21:50:45.860Z,83.20
2023-01-13T21:53:13.171Z,83.20
2023-01-13T21:55:41.591Z,83.10
2023-01-13T21:58:14.835Z,83.00
2023-01-13T22:00:43.737Z,83.00
2023-01-13T22:03:13.022Z,82.90
2023-01-13T22:05:41.095Z,82.80
2023-01-13T22:08:08.631Z,82.90
2023-01-13T22:10:35.984Z,83.90
2023-01-13T22:13:24.006Z,84.10
2023-01-13T22:15:51.477Z,84.30
2023-01-13T22:18:18.733Z,84.30
2023-01-13T22:20:46.375Z,84.30
2023-01-13T22:23:13.764Z,84.30
2023-01-13T22:25:41.012Z,84.30
2023-01-13T22:28:09.515Z,84.30
2023-01-13T22:30:36.897Z,84.10
2023-01-13T22:33:04.239Z,84.10
2023-01-13T22:35:31.589Z,83.90
2023-01-13T22:37:58.964Z,83.80
2023-01-13T22:40:26.227Z,83.90
2023-01-13T22:42:53.701Z,83.80
2023-01-13T22:45:21.092Z,83.90
2023-01-13T22:47:49.649Z,83.90
2023-01-13T22:50:20.655Z,84.00
2023-01-13T22:52:48.164Z,84.00
2023-01-13T22:55:15.635Z,84.00
2023-01-13T22:57:48.214Z,83.90
2023-01-13T23:00:19.241Z,84.50
2023-01-13T23:02:46.957Z,83.70
2023-01-13T23:05:14.620Z,83.70
2023-01-13T23:07:42.050Z,83.70
2023-01-13T23:10:10.116Z,83.50
2023-01-13T23:12:37.888Z,83.60
2023-01-13T23:15:05.941Z,83.60
2023-01-13T23:17:33.372Z,83.50
2023-01-13T23:20:00.653Z,83.60
2023-01-13T23:22:27.968Z,83.70
2023-01-13T23:24:55.346Z,83.70
2023-01-13T23:27:22.569Z,83.90
2023-01-13T23:29:49.891Z,83.90
2023-01-13T23:32:17.126Z,84.70
2023-01-13T23:34:44.524Z,84.10
2023-01-13T23:37:12.109Z,84.20
2023-01-13T23:39:39.358Z,84.20
2023-01-13T23:42:06.632Z,84.20
2023-01-13T23:44:34.330Z,84.20
2023-01-13T23:47:01.973Z,84.20
2023-01-13T23:49:30.615Z,84.30
2023-01-13T23:51:57.980Z,84.40
2023-01-13T23:54:25.660Z,84.40
2023-01-13T23:56:53.176Z,84.50
2023-01-13T23:59:21.216Z,84.50
